Time;durP1;ratioP1;P1;durP2;ratioP2;P2;SDS_P1;SDS_P2;PMS_P1;PMS_P2;Temp;Humidity;BMP_temperature;BMP_pressure;BME280_temperature;BME280_humidity;BME280_pressure;Samples;Min_cycle;Max_cycle;Signal;HPM_P1;HPM_P2
2021/04/13 00:01:21;;;;;;;6.45;4.20;;;5.00;99.90;;;;;;5119787;27;20304;-70
2021/04/13 00:03:51;;;;;;;5.55;4.00;;;4.90;99.90;;;;;;5117825;27;20288;-71
2021/04/13 00:06:23;;;;;;;4.55;3.80;;;4.80;99.90;;;;;;5115969;28;20209;-71
2021/04/13 00:08:53;;;;;;;4.65;3.58;;;4.90;99.90;;;;;;5116378;28;20236;-70
2021/04/13 00:11:21;;;;;;;4.78;4.10;;;4.80;99.90;;;;;;5116288;28;20269;-71
2021/04/13 00:13:51;;;;;;;5.25;4.00;;;4.90;99.90;;;;;;5116437;28;20228;-70
2021/04/13 00:16:20;;;;;;;5.38;3.75;;;4.80;99.90;;;;;;5116589;28;20669;-71
2021/04/13 00:18:48;;;;;;;6.22;4.30;;;4.80;99.90;;;;;;5116045;28;20197;-69
2021/04/13 00:21:18;;;;;;;4.60;3.92;;;4.80;99.90;;;;;;5116119;28;20336;-69
2021/04/13 00:23:45;;;;;;;4.80;4.30;;;4.80;99.90;;;;;;5115909;28;20206;-70
2021/04/13 00:26:20;;;;;;;7.07;4.47;;;4.80;99.90;;;;;;5116416;28;20201;-70
2021/04/13 00:28:49;;;;;;;8.10;4.82;;;4.70;99.90;;;;;;5116063;28;20296;-71
2021/04/13 00:31:20;;;;;;;4.85;4.45;;;4.60;99.90;;;;;;5115892;27;20234;-71
2021/04/13 00:33:47;;;;;;;5.05;4.53;;;4.50;99.90;;;;;;5115874;28;20236;-71
2021/04/13 00:36:16;;;;;;;6.43;4.70;;;4.50;99.90;;;;;;5116120;27;20209;-70
2021/04/13 00:38:43;;;;;;;6.35;4.38;;;4.50;99.90;;;;;;5116039;28;20661;-71
2021/04/13 00:41:17;;;;;;;6.38;4.75;;;4.50;99.90;;;;;;5115698;28;20217;-71
2021/04/13 00:43:46;;;;;;;7.75;4.82;;;4.50;99.90;;;;;;5115879;27;20345;-72
2021/04/13 00:46:19;;;;;;;8.45;4.60;;;4.50;99.90;;;;;;5116243;28;20207;-70
2021/04/13 00:48:46;;;;;;;5.90;4.80;;;4.50;99.90;;;;;;5116113;28;20288;-70
2021/04/13 00:51:23;;;;;;;6.30;5.13;;;4.50;99.90;;;;;;5115949;27;20312;-71
2021/04/13 00:53:53;;;;;;;5.15;3.88;;;4.50;99.90;;;;;;5115831;28;20631;-70
2021/04/13 00:56:21;;;;;;;5.75;4.50;;;4.40;99.90;;;;;;5115331;28;20213;-70
2021/04/13 00:59:01;;;;;;;10.05;5.28;;;4.40;99.90;;;;;;5115993;28;20292;-71
2021/04/13 01:01:32;;;;;;;8.70;5.38;;;4.40;99.90;;;;;;5115480;28;20221;-71
2021/04/13 01:04:03;;;;;;;5.72;4.18;;;4.50;99.90;;;;;;5115752;28;20224;-71
2021/04/13 01:06:32;;;;;;;11.55;5.70;;;4.40;99.90;;;;;;5114690;28;20205;-71
2021/04/13 01:09:10;;;;;;;7.25;4.97;;;4.40;99.90;;;;;;5114717;28;20216;-72
2021/04/13 01:11:42;;;;;;;7.25;5.30;;;4.40;99.90;;;;;;5114578;28;20228;-71
2021/04/13 01:14:10;;;;;;;6.28;4.72;;;4.40;99.90;;;;;;5114685;28;20250;-71
2021/04/13 01:16:43;;;;;;;7.13;4.72;;;4.40;99.90;;;;;;5113287;28;20250;-71
2021/04/13 01:19:31;;;;;;;5.13;4.63;;;4.50;99.90;;;;;;5114503;28;20292;-71
2021/04/13 01:22:06;;;;;;;6.72;4.88;;;4.50;99.90;;;;;;5114406;28;20229;-71
2021/04/13 01:24:37;;;;;;;7.43;5.28;;;4.60;99.90;;;;;;5114092;28;20685;-71
2021/04/13 01:27:10;;;;;;;8.30;5.65;;;4.60;99.90;;;;;;5114425;28;20208;-71
2021/04/13 01:29:37;;;;;;;6.18;5.00;;;4.60;99.90;;;;;;5114275;28;20296;-72
2021/04/13 01:32:08;;;;;;;5.75;5.15;;;4.70;99.90;;;;;;5113983;28;20902;-72
2021/04/13 01:34:50;;;;;;;6.28;5.10;;;4.70;99.90;;;;;;5113940;28;20213;-73
2021/04/13 01:37:29;;;;;;;7.13;5.32;;;4.70;99.90;;;;;;5114181;28;20205;-72
2021/04/13 01:40:00;;;;;;;5.93;5.32;;;4.70;99.90;;;;;;5114161;28;20201;-72
2021/04/13 01:42:29;;;;;;;7.97;4.95;;;4.70;99.90;;;;;;5113766;28;20201;-72
2021/04/13 01:44:59;;;;;;;7.32;5.10;;;4.70;99.90;;;;;;5114164;28;20197;-75
2021/04/13 01:47:27;;;;;;;6.80;4.93;;;4.70;99.90;;;;;;5115001;28;20288;-69
2021/04/13 01:49:56;;;;;;;8.85;5.10;;;4.70;99.90;;;;;;5115333;28;20680;-69
2021/04/13 01:52:26;;;;;;;7.30;5.95;;;4.60;99.90;;;;;;5114926;28;20204;-69
2021/04/13 01:54:53;;;;;;;8.30;5.72;;;4.60;99.90;;;;;;5114808;28;20634;-70
2021/04/13 01:57:35;;;;;;;8.13;5.78;;;4.60;99.90;;;;;;5114525;28;20691;-69
2021/04/13 02:00:11;;;;;;;7.40;5.93;;;4.60;99.90;;;;;;5115013;28;20270;-68
2021/04/13 02:02:46;;;;;;;11.07;6.25;;;4.60;99.90;;;;;;5115426;28;20272;-69
2021/04/13 02:05:15;;;;;;;10.30;7.55;;;4.50;99.90;;;;;;5114679;28;20205;-69
2021/04/13 02:07:54;;;;;;;9.85;6.93;;;4.40;99.90;;;;;;5114630;28;20209;-69
2021/04/13 02:10:26;;;;;;;9.68;7.45;;;4.40;99.90;;;;;;5114396;28;20236;-69
2021/04/13 02:12:55;;;;;;;10.63;6.60;;;4.30;99.90;;;;;;5115215;28;20182;-69
2021/04/13 02:15:31;;;;;;;8.60;6.53;;;4.20;99.90;;;;;;5114764;28;20202;-68
2021/04/13 02:18:01;;;;;;;12.38;7.88;;;4.20;99.90;;;;;;5114570;28;20253;-69
2021/04/13 02:20:31;;;;;;;9.70;7.20;;;4.20;99.90;;;;;;5114245;28;20308;-70
2021/04/13 02:22:59;;;;;;;11.55;7.55;;;4.10;99.90;;;;;;5114889;28;20582;-69
2021/04/13 02:25:30;;;;;;;15.18;9.57;;;4.00;99.90;;;;;;5114938;28;20296;-69
2021/04/13 02:27:59;;;;;;;11.05;6.38;;;4.00;99.90;;;;;;5113982;28;20202;-69
2021/04/13 02:30:35;;;;;;;11.05;6.88;;;4.00;99.90;;;;;;5114275;28;20277;-69
2021/04/13 02:33:10;;;;;;;10.95;6.97;;;3.90;99.90;;;;;;5114185;28;20197;-68
2021/04/13 02:35:38;;;;;;;10.63;7.28;;;3.90;99.90;;;;;;5114184;28;20659;-70
2021/04/13 02:38:10;;;;;;;13.27;7.78;;;4.00;99.90;;;;;;5114503;28;20735;-69
2021/04/13 02:40:40;;;;;;;16.05;8.48;;;3.90;99.90;;;;;;5114185;28;20221;-69
2021/04/13 02:43:12;;;;;;;11.68;8.25;;;3.90;99.90;;;;;;5114248;28;20221;-69
2021/04/13 02:45:43;;;;;;;13.57;8.15;;;3.90;99.90;;;;;;5114140;28;20288;-68
2021/04/13 02:48:15;;;;;;;11.90;8.25;;;3.70;99.90;;;;;;5114397;28;20230;-69
2021/04/13 02:50:45;;;;;;;12.23;8.57;;;3.60;99.90;;;;;;5114206;28;20232;-70
2021/04/13 02:53:14;;;;;;;14.50;9.77;;;3.60;99.90;;;;;;5114540;28;20239;-69
2021/04/13 02:55:49;;;;;;;12.60;8.60;;;3.60;99.90;;;;;;5113763;28;20568;-69
2021/04/13 02:58:18;;;;;;;16.15;9.00;;;3.60;99.90;;;;;;5113865;28;20201;-69
2021/04/13 03:00:47;;;;;;;10.45;7.38;;;3.50;99.90;;;;;;5113900;28;20316;-68
2021/04/13 03:03:18;;;;;;;7.72;6.55;;;3.60;99.90;;;;;;5114348;28;20302;-69
2021/04/13 03:05:51;;;;;;;11.35;7.70;;;3.60;99.90;;;;;;5113774;28;20190;-69
2021/04/13 03:08:18;;;;;;;12.07;6.72;;;3.60;99.90;;;;;;5113864;28;20292;-69
2021/04/13 03:10:49;;;;;;;13.88;6.78;;;3.70;99.90;;;;;;5113928;28;20319;-69
2021/04/13 03:13:19;;;;;;;8.65;6.90;;;3.80;99.90;;;;;;5114490;28;20277;-69
2021/04/13 03:15:51;;;;;;;13.82;7.68;;;3.90;99.90;;;;;;5113960;28;20579;-70
2021/04/13 03:18:22;;;;;;;11.90;7.38;;;3.90;99.90;;;;;;5113909;28;20208;-69
2021/04/13 03:20:51;;;;;;;12.25;6.65;;;4.00;99.90;;;;;;5114114;28;20217;-69
2021/04/13 03:23:19;;;;;;;10.65;6.88;;;4.10;99.90;;;;;;5114035;28;20568;-69
2021/04/13 03:25:52;;;;;;;11.32;6.90;;;4.10;99.90;;;;;;5113679;28;20781;-69
2021/04/13 03:28:23;;;;;;;10.32;7.00;;;4.10;99.90;;;;;;5114048;28;20676;-69
2021/04/13 03:30:51;;;;;;;12.98;7.55;;;4.00;99.90;;;;;;5113496;28;20677;-69
2021/04/13 03:33:21;;;;;;;10.65;7.10;;;4.10;99.90;;;;;;5113829;28;20201;-69
2021/04/13 03:35:48;;;;;;;11.80;7.53;;;4.20;99.90;;;;;;5113605;28;20201;-70
2021/04/13 03:38:20;;;;;;;12.52;6.82;;;4.30;99.90;;;;;;5113861;28;20209;-69
2021/04/13 03:40:49;;;;;;;12.60;7.25;;;4.30;99.90;;;;;;5116692;28;20756;-69
2021/04/13 03:43:22;;;;;;;11.25;6.78;;;4.20;99.90;;;;;;5117486;28;20237;-69
2021/04/13 03:45:51;;;;;;;9.88;6.90;;;4.20;99.90;;;;;;5117742;28;20233;-70
2021/04/13 03:48:22;;;;;;;11.60;6.40;;;4.10;99.90;;;;;;5117646;27;20205;-69
2021/04/13 03:50:59;;;;;;;11.88;6.82;;;4.10;99.90;;;;;;5117507;28;20226;-70
2021/04/13 03:53:38;;;;;;;11.70;6.88;;;4.10;99.90;;;;;;5117080;28;20205;-69
2021/04/13 03:56:06;;;;;;;8.40;6.53;;;4.20;99.90;;;;;;5116798;28;20242;-69
2021/04/13 03:58:39;;;;;;;11.52;6.50;;;4.20;99.90;;;;;;5117108;28;20272;-69
2021/04/13 04:01:08;;;;;;;9.30;7.05;;;4.20;99.90;;;;;;5117421;28;20309;-69
2021/04/13 04:03:38;;;;;;;10.93;7.25;;;4.20;99.90;;;;;;5117415;28;20205;-69
2021/04/13 04:06:05;;;;;;;12.15;7.10;;;4.20;99.90;;;;;;5116922;28;20193;-69
2021/04/13 04:08:38;;;;;;;11.45;7.35;;;4.20;99.90;;;;;;5117093;28;20288;-69
2021/04/13 04:11:04;;;;;;;13.00;7.40;;;4.10;99.90;;;;;;5116919;28;20229;-69
2021/04/13 04:13:34;;;;;;;12.52;6.85;;;4.10;99.90;;;;;;5117202;28;20291;-69
2021/04/13 04:16:14;;;;;;;10.38;6.30;;;4.00;99.90;;;;;;5116895;28;20292;-69
2021/04/13 04:18:44;;;;;;;8.68;6.13;;;3.90;99.90;;;;;;5116767;28;20192;-69
2021/04/13 04:21:31;;;;;;;9.68;6.15;;;3.90;99.90;;;;;;5116698;28;20213;-69
2021/04/13 04:23:59;;;;;;;9.55;7.05;;;3.90;99.90;;;;;;5117065;28;20201;-69
2021/04/13 04:26:31;;;;;;;10.85;8.52;;;3.80;99.90;;;;;;5116540;28;20207;-68
2021/04/13 04:29:12;;;;;;;11.52;7.60;;;3.70;99.90;;;;;;5116584;28;20564;-69
2021/04/13 04:31:41;;;;;;;12.07;7.25;;;3.70;99.90;;;;;;5116778;28;20229;-69
2021/04/13 04:34:56;;;;;;;11.82;7.93;;;3.70;99.90;;;;;;5116716;28;20231;-69
2021/04/13 04:37:32;;;;;;;9.95;6.50;;;3.70;99.90;;;;;;5053421;28;20282;-69
2021/04/13 04:40:37;;;;;;;12.35;8.20;;;3.60;99.90;;;;;;5105124;27;20201;-70
2021/04/13 04:43:06;;;;;;;12.32;7.22;;;3.50;99.90;;;;;;5084956;28;20737;-69
2021/04/13 04:45:47;;;;;;;9.30;6.30;;;3.50;99.90;;;;;;5116528;28;20205;-69
2021/04/13 04:48:28;;;;;;;9.93;7.28;;;3.50;99.90;;;;;;5116397;28;20289;-69
2021/04/13 04:50:57;;;;;;;11.02;6.97;;;3.60;99.90;;;;;;5116001;28;20261;-69
2021/04/13 04:53:27;;;;;;;11.23;7.90;;;3.60;99.90;;;;;;5116469;28;20370;-69
2021/04/13 04:55:55;;;;;;;12.25;6.63;;;3.60;99.90;;;;;;5115760;28;20227;-69
2021/04/13 04:58:22;;;;;;;10.30;7.05;;;3.50;99.90;;;;;;5116127;28;20545;-69
2021/04/13 05:00:50;;;;;;;10.35;6.90;;;3.40;99.90;;;;;;5116239;28;20308;-69
2021/04/13 05:03:17;;;;;;;9.20;7.75;;;3.50;99.90;;;;;;5116231;28;20205;-69
2021/04/13 05:05:44;;;;;;;11.48;6.97;;;3.50;99.90;;;;;;5115807;27;20688;-69
2021/04/13 05:08:10;;;;;;;9.80;7.15;;;3.60;99.90;;;;;;5116190;28;20288;-69
2021/04/13 05:10:37;;;;;;;12.13;6.90;;;3.60;99.90;;;;;;5115406;28;20677;-69
2021/04/13 05:13:04;;;;;;;10.48;7.30;;;3.70;99.90;;;;;;5115869;27;20255;-69
2021/04/13 05:15:31;;;;;;;11.07;7.93;;;3.70;99.90;;;;;;5115687;28;20201;-70
2021/04/13 05:17:57;;;;;;;8.55;6.28;;;3.70;99.90;;;;;;5115762;28;20197;-68
2021/04/13 05:20:23;;;;;;;10.48;7.25;;;3.80;99.90;;;;;;5115701;28;20267;-69
2021/04/13 05:22:50;;;;;;;10.70;7.07;;;3.80;99.90;;;;;;5115463;28;20233;-69
2021/04/13 05:25:18;;;;;;;17.25;8.52;;;3.80;99.90;;;;;;5115499;28;20243;-69
2021/04/13 05:27:45;;;;;;;12.38;7.25;;;3.80;99.90;;;;;;5115391;28;20209;-70
2021/04/13 05:30:14;;;;;;;9.55;7.70;;;3.80;99.90;;;;;;5115464;28;20235;-69
2021/04/13 05:32:41;;;;;;;13.73;8.20;;;3.80;99.90;;;;;;5115601;28;20675;-69
2021/04/13 05:35:09;;;;;;;10.82;8.00;;;3.80;99.90;;;;;;5115666;28;20202;-69
2021/04/13 05:37:35;;;;;;;11.35;7.70;;;3.80;99.90;;;;;;5114934;28;20254;-69
2021/04/13 05:40:04;;;;;;;15.02;7.93;;;3.80;99.90;;;;;;5114963;28;20239;-69
2021/04/13 05:42:32;;;;;;;10.48;7.53;;;3.90;99.90;;;;;;5115398;28;20240;-69
2021/04/13 05:45:00;;;;;;;11.43;7.55;;;3.90;99.90;;;;;;5115418;28;20306;-69
2021/04/13 05:47:29;;;;;;;13.85;7.82;;;3.90;99.90;;;;;;5115148;28;20728;-69
2021/04/13 05:49:55;;;;;;;13.18;7.15;;;3.90;99.90;;;;;;5115221;28;20663;-70
2021/04/13 05:52:22;;;;;;;12.38;6.97;;;3.70;99.90;;;;;;5115042;28;20288;-69
2021/04/13 05:54:48;;;;;;;11.27;8.00;;;3.70;99.90;;;;;;5114919;28;20243;-70
2021/04/13 05:57:21;;;;;;;13.27;7.63;;;3.50;99.90;;;;;;5115172;28;20237;-69
2021/04/13 05:59:51;;;;;;;10.15;7.10;;;3.70;99.90;;;;;;5115070;28;20236;-69
2021/04/13 06:02:18;;;;;;;13.30;7.80;;;3.70;99.90;;;;;;5114959;28;20599;-69
2021/04/13 06:04:45;;;;;;;11.35;7.47;;;3.80;99.90;;;;;;5114690;28;20366;-69
2021/04/13 06:07:11;;;;;;;10.95;7.75;;;3.90;99.90;;;;;;5114656;28;20202;-69
2021/04/13 06:09:38;;;;;;;10.68;7.35;;;3.90;99.90;;;;;;5114817;28;20292;-69
2021/04/13 06:12:05;;;;;;;10.30;6.85;;;4.00;99.90;;;;;;5114606;28;20229;-69
2021/04/13 06:14:31;;;;;;;11.43;7.75;;;4.00;99.90;;;;;;5114586;28;20662;-69
2021/04/13 06:16:57;;;;;;;11.88;7.38;;;4.00;99.90;;;;;;5114341;28;20673;-69
2021/04/13 06:19:25;;;;;;;10.52;6.82;;;4.10;99.90;;;;;;5114303;28;20288;-69
2021/04/13 06:21:52;;;;;;;14.38;7.32;;;4.10;99.90;;;;;;5114069;28;20218;-69
2021/04/13 06:24:18;;;;;;;10.90;7.25;;;4.20;99.90;;;;;;5114413;28;20197;-69
2021/04/13 06:26:44;;;;;;;11.90;7.75;;;4.00;99.90;;;;;;5114147;27;20240;-69
2021/04/13 06:29:11;;;;;;;10.60;7.10;;;3.90;99.90;;;;;;5114678;28;20292;-69
2021/04/13 06:31:37;;;;;;;13.00;7.32;;;4.00;99.90;;;;;;5114573;28;20297;-69
2021/04/13 06:34:03;;;;;;;15.40;7.63;;;4.00;99.90;;;;;;5113997;28;20211;-69
2021/04/13 06:36:33;;;;;;;13.93;7.45;;;3.90;99.90;;;;;;5114017;28;20745;-69
2021/04/13 06:38:59;;;;;;;13.93;8.20;;;3.80;99.90;;;;;;5114468;28;20228;-69
2021/04/13 06:41:48;;;;;;;10.32;7.43;;;4.00;99.90;;;;;;5114328;28;20229;-69
2021/04/13 06:44:40;;;;;;;12.68;7.05;;;4.20;99.90;;;;;;5114565;28;20201;-69
2021/04/13 06:47:14;;;;;;;11.57;8.57;;;4.50;99.90;;;;;;5114150;28;20254;-69
2021/04/13 06:49:59;;;;;;;12.80;7.65;;;4.60;99.90;;;;;;5114312;28;20288;-69
2021/04/13 06:52:39;;;;;;;10.43;8.75;;;4.90;99.90;;;;;;5113981;28;20189;-69
2021/04/13 06:55:14;;;;;;;11.43;7.75;;;5.20;99.90;;;;;;5113792;28;20300;-70
2021/04/13 06:58:00;;;;;;;12.13;7.80;;;5.40;99.90;;;;;;5113723;28;20632;-69
2021/04/13 07:00:45;;;;;;;11.52;8.85;;;5.70;99.90;;;;;;5114043;28;20217;-69
2021/04/13 07:03:18;;;;;;;13.63;8.63;;;5.70;99.90;;;;;;5113995;28;20205;-68
2021/04/13 07:05:50;;;;;;;13.25;8.45;;;5.70;99.90;;;;;;5113821;28;20228;-69
2021/04/13 07:08:25;;;;;;;12.60;8.90;;;5.90;99.90;;;;;;5114019;28;20648;-69
2021/04/13 07:10:55;;;;;;;13.20;9.60;;;5.70;99.90;;;;;;5113800;28;20224;-69
2021/04/13 07:13:27;;;;;;;13.48;8.98;;;5.60;99.90;;;;;;5115416;28;20224;-69
2021/04/13 07:16:00;;;;;;;12.23;8.50;;;5.60;99.90;;;;;;5117799;28;20197;-69
2021/04/13 07:18:33;;;;;;;13.27;8.02;;;5.70;99.90;;;;;;5117937;28;20607;-70
2021/04/13 07:21:07;;;;;;;12.38;9.15;;;5.80;99.90;;;;;;5118094;28;20304;-70
2021/04/13 07:23:42;;;;;;;13.07;8.57;;;5.90;99.90;;;;;;5118581;28;20552;-70
2021/04/13 07:26:12;;;;;;;15.85;8.55;;;5.80;99.90;;;;;;5117554;28;20611;-70
2021/04/13 07:28:41;;;;;;;13.15;8.38;;;6.00;99.90;;;;;;5117974;28;20602;-70
2021/04/13 07:31:14;;;;;;;16.00;8.80;;;6.10;99.90;;;;;;5117665;28;20699;-70
2021/04/13 07:33:44;;;;;;;14.90;8.25;;;6.30;99.90;;;;;;5117939;28;20255;-70
2021/04/13 07:36:18;;;;;;;14.00;9.55;;;6.50;99.90;;;;;;5117441;28;20324;-70
2021/04/13 07:38:50;;;;;;;14.40;8.10;;;6.80;99.90;;;;;;5117675;28;20208;-69
2021/04/13 07:41:23;;;;;;;12.93;8.93;;;6.70;99.90;;;;;;5117823;28;20557;-69
2021/04/13 07:43:55;;;;;;;13.82;8.93;;;6.80;98.90;;;;;;5117764;28;20656;-69
2021/04/13 07:46:41;;;;;;;12.63;8.80;;;6.90;99.90;;;;;;5117315;28;20575;-69
2021/04/13 07:49:14;;;;;;;12.90;8.60;;;7.10;99.70;;;;;;5117503;28;20235;-70
2021/04/13 07:51:51;;;;;;;17.92;9.85;;;7.20;99.10;;;;;;5110682;28;20221;-75
2021/04/13 07:54:39;;;;;;;15.20;8.82;;;7.20;99.10;;;;;;5104837;28;20214;-75
2021/04/13 07:57:10;;;;;;;13.20;8.85;;;7.20;99.10;;;;;;5095380;28;20288;-76
2021/04/13 07:59:44;;;;;;;14.27;8.55;;;7.20;98.60;;;;;;5095948;28;20611;-73
2021/04/13 08:02:11;;;;;;;14.35;8.60;;;7.20;99.20;;;;;;5095699;28;20228;-74
2021/04/13 08:04:37;;;;;;;13.40;9.00;;;7.10;99.50;;;;;;5095122;28;20776;-74
2021/04/13 08:07:12;;;;;;;14.05;8.52;;;6.60;99.90;;;;;;5095073;28;20206;-75
2021/04/13 08:09:44;;;;;;;13.60;9.15;;;6.50;99.90;;;;;;5095329;28;20224;-75
2021/04/13 08:12:23;;;;;;;12.75;8.20;;;6.50;99.90;;;;;;5095445;28;20254;-74
2021/04/13 08:15:05;;;;;;;14.38;8.85;;;6.50;99.90;;;;;;5095113;28;20345;-73
2021/04/13 08:17:34;;;;;;;14.02;8.93;;;6.60;99.90;;;;;;5094824;28;20289;-74
2021/04/13 08:20:04;;;;;;;19.77;9.70;;;6.70;99.90;;;;;;5095222;28;20205;-73
2021/04/13 08:22:48;;;;;;;15.40;9.63;;;6.70;99.90;;;;;;5095463;28;20301;-73
2021/04/13 08:25:34;;;;;;;12.82;8.80;;;6.80;99.90;;;;;;5094725;28;20197;-75
2021/04/13 08:28:21;;;;;;;15.82;9.15;;;6.80;99.90;;;;;;5096710;28;20206;-75
2021/04/13 08:33:44;;;;;;;13.18;8.75;;;6.50;99.90;;;;;;5095790;28;20213;-75
2021/04/13 08:36:19;;;;;;;15.85;10.13;;;6.60;99.90;;;;;;5096073;28;20198;-75
2021/04/13 08:38:55;;;;;;;15.95;8.93;;;6.60;99.90;;;;;;5096524;28;20206;-74
2021/04/13 08:41:34;;;;;;;17.73;9.70;;;6.80;99.50;;;;;;5096190;28;20224;-74
2021/04/13 08:44:14;;;;;;;17.30;9.32;;;7.20;99.80;;;;;;5096225;28;20208;-74
2021/04/13 08:46:48;;;;;;;12.82;9.10;;;7.50;98.50;;;;;;5095709;28;20202;-69
2021/04/13 08:49:30;;;;;;;14.48;8.10;;;7.00;97.00;;;;;;5096377;28;20209;-69
2021/04/13 08:52:14;;;;;;;15.45;9.60;;;6.80;98.30;;;;;;5096005;28;20218;-69
2021/04/13 08:54:42;;;;;;;15.50;9.88;;;6.90;98.80;;;;;;5095820;28;20688;-70
2021/04/13 08:57:28;;;;;;;11.05;7.20;;;6.80;97.50;;;;;;5095557;28;20232;-69
2021/04/13 08:59:56;;;;;;;13.45;8.15;;;7.10;97.20;;;;;;5095711;28;20288;-70
2021/04/13 09:02:25;;;;;;;10.90;7.82;;;7.30;96.40;;;;;;5095615;28;20289;-69
2021/04/13 09:05:03;;;;;;;10.10;6.93;;;7.40;95.00;;;;;;5095836;28;20206;-70
2021/04/13 09:07:31;;;;;;;13.60;8.63;;;7.30;95.00;;;;;;5096079;28;20213;-69
2021/04/13 09:10:15;;;;;;;14.88;7.22;;;7.10;95.10;;;;;;5095773;28;20206;-69
2021/04/13 09:12:50;;;;;;;11.13;7.35;;;7.20;94.90;;;;;;5096127;28;20281;-69
2021/04/13 09:15:24;;;;;;;10.95;7.25;;;7.10;94.10;;;;;;5096179;28;20236;-68
2021/04/13 09:18:00;;;;;;;11.48;7.60;;;6.70;93.20;;;;;;5095820;28;20210;-69
2021/04/13 09:20:37;;;;;;;10.27;7.07;;;6.40;93.80;;;;;;5095797;28;20218;-69
2021/04/13 09:23:12;;;;;;;8.40;6.22;;;6.50;93.70;;;;;;5095510;28;20280;-69
2021/04/13 09:25:42;;;;;;;9.52;6.57;;;7.00;93.30;;;;;;5095099;28;20205;-69
2021/04/13 09:28:12;;;;;;;12.60;6.85;;;7.20;90.80;;;;;;5095238;28;20194;-69
2021/04/13 09:30:42;;;;;;;9.88;6.88;;;8.40;90.60;;;;;;5095600;28;20230;-70
2021/04/13 09:33:13;;;;;;;7.65;6.00;;;10.10;84.30;;;;;;5095216;28;20541;-70
2021/04/13 09:35:59;;;;;;;9.10;6.85;;;11.00;75.20;;;;;;5094731;28;20209;-69
2021/04/13 09:39:03;;;;;;;9.73;6.57;;;11.30;69.40;;;;;;5094420;28;20234;-70
2021/04/13 09:41:47;;;;;;;10.65;6.82;;;11.00;64.40;;;;;;5094987;28;20221;-70
2021/04/13 09:44:50;;;;;;;9.32;6.57;;;9.80;67.70;;;;;;5095238;28;20294;-69
2021/04/13 09:47:41;;;;;;;9.82;7.05;;;9.20;70.80;;;;;;5094816;28;20292;-70
2021/04/13 09:50:20;;;;;;;10.48;7.45;;;8.90;74.30;;;;;;5094416;28;20232;-70
2021/04/13 09:53:04;;;;;;;11.68;7.93;;;9.40;77.00;;;;;;5094613;28;20320;-70
2021/04/13 09:55:42;;;;;;;10.13;6.63;;;11.80;71.50;;;;;;5094550;28;20214;-69
2021/04/13 09:58:47;;;;;;;11.32;7.90;;;13.70;62.50;;;;;;5094581;28;20304;-70
2021/04/13 10:01:46;;;;;;;9.60;7.60;;;14.00;55.70;;;;;;5094562;28;20222;-70
2021/04/13 10:04:35;;;;;;;10.48;6.80;;;12.40;56.20;;;;;;5094893;28;20202;-70
2021/04/13 10:07:23;;;;;;;9.70;6.80;;;13.00;57.50;;;;;;5094169;28;20688;-70
2021/04/13 10:09:51;;;;;;;11.07;7.00;;;11.50;57.80;;;;;;5094669;28;20210;-70
2021/04/13 10:12:55;;;;;;;9.50;6.85;;;12.70;59.00;;;;;;5094743;28;20228;-70
2021/04/13 10:15:59;;;;;;;9.98;7.00;;;13.10;54.70;;;;;;5093867;28;20736;-69
2021/04/13 10:18:57;;;;;;;8.75;6.57;;;12.50;55.70;;;;;;5094647;28;20213;-70
2021/04/13 10:22:03;;;;;;;9.77;7.03;;;11.90;57.00;;;;;;5090033;28;20756;-69
2021/04/13 10:25:15;;;;;;;10.25;7.13;;;10.40;58.30;;;;;;5094533;28;20212;-70
2021/04/13 10:28:16;;;;;;;10.07;6.70;;;9.40;65.30;;;;;;5094138;28;20250;-69
2021/04/13 10:31:27;;;;;;;10.57;6.72;;;8.50;67.40;;;;;;5093980;28;20581;-70
2021/04/13 10:34:24;;;;;;;9.48;5.88;;;8.20;69.10;;;;;;5094142;28;20217;-69
2021/04/13 10:37:20;;;;;;;9.48;6.15;;;8.30;70.00;;;;;;5093914;28;20675;-69
2021/04/13 10:40:02;;;;;;;9.40;6.05;;;8.40;68.20;;;;;;5093960;28;20202;-69
2021/04/13 10:42:59;;;;;;;7.88;5.25;;;8.10;70.40;;;;;;5093704;28;20189;-69
2021/04/13 10:45:51;;;;;;;7.57;5.40;;;8.20;70.00;;;;;;5093953;28;20348;-69
2021/04/13 10:48:54;;;;;;;6.95;5.28;;;10.20;64.10;;;;;;5093529;28;20358;-70
2021/04/13 10:52:06;;;;;;;6.50;5.47;;;12.90;59.30;;;;;;5094083;28;20299;-70
2021/04/13 10:55:11;;;;;;;8.50;6.00;;;15.00;51.70;;;;;;5057097;28;20202;-70
2021/04/13 10:58:16;;;;;;;10.00;6.82;;;13.70;52.50;;;;;;5093540;28;20294;-69
2021/04/13 11:01:07;;;;;;;8.90;5.97;;;13.00;52.70;;;;;;5093727;28;20225;-69
2021/04/13 11:04:05;;;;;;;8.27;6.10;;;11.50;53.40;;;;;;5059866;28;20292;-69
2021/04/13 11:07:08;;;;;;;8.70;6.03;;;10.60;55.50;;;;;;5093495;28;20201;-69
2021/04/13 11:09:42;;;;;;;9.30;5.63;;;10.10;56.70;;;;;;5060111;28;20297;-69
2021/04/13 11:12:42;;;;;;;7.93;5.40;;;10.50;57.30;;;;;;5093607;28;20690;-69
2021/04/13 11:15:42;;;;;;;7.10;5.80;;;11.90;57.90;;;;;;5093968;28;20292;-70
2021/04/13 11:18:31;;;;;;;7.88;6.03;;;13.00;55.40;;;;;;5093698;28;20198;-70
2021/04/13 11:21:42;;;;;;;7.05;5.80;;;14.00;48.40;;;;;;5093757;28;20218;-70
2021/04/13 11:24:39;;;;;;;6.43;4.40;;;15.50;47.60;;;;;;5093584;28;20205;-70
2021/04/13 11:27:51;;;;;;;7.45;4.80;;;15.30;44.40;;;;;;5092287;28;20291;-70
2021/04/13 11:30:50;;;;;;;5.88;4.90;;;14.30;42.80;;;;;;5056821;28;20218;-70
2021/04/13 11:33:55;;;;;;;8.23;5.35;;;14.50;45.80;;;;;;5093570;28;20749;-70
2021/04/13 11:36:35;;;;;;;7.65;4.60;;;14.10;43.10;;;;;;5030584;28;20588;-69
2021/04/13 11:39:12;;;;;;;4.88;4.38;;;13.50;44.60;;;;;;5088079;28;20198;-70
2021/04/13 11:41:58;;;;;;;6.70;5.15;;;13.00;45.60;;;;;;5092885;28;20309;-70
2021/04/13 11:44:31;;;;;;;6.45;4.88;;;12.40;45.80;;;;;;5093230;28;20297;-69
2021/04/13 11:47:09;;;;;;;6.85;5.10;;;12.40;46.00;;;;;;5093055;28;20277;-70
2021/04/13 11:49:43;;;;;;;6.75;5.35;;;11.50;45.20;;;;;;5093267;28;20213;-69
2021/04/13 11:52:16;;;;;;;7.18;4.60;;;11.20;46.10;;;;;;5093333;28;20228;-69
2021/04/13 11:54:52;;;;;;;7.07;5.07;;;11.20;48.60;;;;;;5092852;28;20251;-70
2021/04/13 11:57:21;;;;;;;7.82;5.43;;;11.40;50.30;;;;;;5093088;28;20591;-70
2021/04/13 12:00:25;;;;;;;8.75;5.57;;;11.30;48.00;;;;;;5093242;28;20198;-69
2021/04/13 12:03:05;;;;;;;7.10;5.50;;;11.30;49.10;;;;;;5096787;28;20612;-70
2021/04/13 12:05:42;;;;;;;5.50;4.30;;;11.40;49.10;;;;;;5096631;28;20550;-69
2021/04/13 12:08:43;;;;;;;6.15;4.85;;;10.70;50.40;;;;;;5096579;28;20275;-69
2021/04/13 12:11:10;;;;;;;6.35;4.47;;;9.60;50.50;;;;;;5096380;28;20222;-69
2021/04/13 12:13:41;;;;;;;5.60;4.43;;;9.20;51.30;;;;;;5096513;28;20565;-69
2021/04/13 12:16:09;;;;;;;8.50;5.18;;;8.70;52.50;;;;;;5096049;28;20206;-69
2021/04/13 12:19:14;;;;;;;7.57;4.93;;;8.70;56.40;;;;;;5096512;28;20254;-69
2021/04/13 12:21:59;;;;;;;7.50;5.18;;;8.80;57.50;;;;;;5096388;28;20594;-69
2021/04/13 12:24:49;;;;;;;6.53;4.45;;;8.90;59.60;;;;;;5096395;28;20183;-70
2021/04/13 12:27:53;;;;;;;5.00;3.30;;;9.10;57.90;;;;;;5096230;28;20217;-69
2021/04/13 12:30:57;;;;;;;5.65;3.35;;;9.20;52.60;;;;;;5095829;28;20224;-70
2021/04/13 12:34:06;;;;;;;4.90;3.65;;;9.30;51.20;;;;;;5096170;28;20212;-69
2021/04/13 12:36:48;;;;;;;3.55;2.97;;;9.50;49.60;;;;;;5096134;28;20206;-69
2021/04/13 12:39:48;;;;;;;3.28;2.97;;;9.70;50.00;;;;;;5096247;28;20292;-69
2021/04/13 12:42:44;;;;;;;5.45;3.35;;;9.70;47.20;;;;;;5096240;28;20186;-69
2021/04/13 12:45:49;;;;;;;3.30;2.80;;;9.50;46.60;;;;;;5095969;28;20202;-69
2021/04/13 12:48:19;;;;;;;4.78;3.28;;;9.40;46.20;;;;;;5095946;28;20272;-69
2021/04/13 12:50:51;;;;;;;3.40;3.10;;;9.90;46.30;;;;;;5095787;28;20274;-70
2021/04/13 12:53:19;;;;;;;9.35;3.47;;;10.40;47.70;;;;;;5095638;28;20719;-69
2021/04/13 12:55:46;;;;;;;4.53;3.65;;;10.80;46.40;;;;;;5095289;28;20210;-69
2021/04/13 12:58:15;;;;;;;4.45;3.67;;;10.30;46.30;;;;;;5095772;28;20293;-69
2021/04/13 13:00:45;;;;;;;4.90;3.53;;;10.50;47.50;;;;;;5095601;28;20228;-70
2021/04/13 13:03:17;;;;;;;3.65;3.10;;;10.20;43.20;;;;;;5095822;28;20239;-70
2021/04/13 13:05:44;;;;;;;5.10;3.60;;;10.20;45.50;;;;;;5095291;28;20208;-69
2021/04/13 13:08:19;;;;;;;5.50;3.90;;;10.60;47.80;;;;;;5095402;28;20289;-69
2021/04/13 13:10:49;;;;;;;5.13;3.83;;;11.00;47.40;;;;;;5095241;28;20221;-70
2021/04/13 13:13:20;;;;;;;4.88;3.63;;;11.20;46.80;;;;;;5095338;28;20202;-70
2021/04/13 13:15:47;;;;;;;5.90;3.80;;;10.80;46.80;;;;;;5095419;28;20607;-69
2021/04/13 13:18:21;;;;;;;5.43;3.90;;;10.70;48.40;;;;;;5095325;28;20206;-69
2021/04/13 13:20:57;;;;;;;4.85;4.10;;;10.30;49.90;;;;;;5095453;28;20226;-69
2021/04/13 13:23:29;;;;;;;7.35;4.43;;;10.00;51.10;;;;;;5095400;28;20216;-69
2021/04/13 13:25:55;;;;;;;6.50;4.50;;;9.30;55.60;;;;;;5094898;28;20729;-69
2021/04/13 13:28:24;;;;;;;5.18;3.70;;;9.20;55.50;;;;;;5094800;28;20711;-69
2021/04/13 13:30:52;;;;;;;4.72;3.53;;;9.10;55.60;;;;;;5094806;28;20226;-69
2021/04/13 13:33:20;;;;;;;4.63;3.60;;;9.10;54.70;;;;;;5094959;28;20197;-69
2021/04/13 13:35:48;;;;;;;5.38;4.00;;;9.10;53.70;;;;;;5094904;28;20288;-70
2021/04/13 13:38:17;;;;;;;5.70;3.67;;;9.00;54.40;;;;;;5095151;28;20677;-69
2021/04/13 13:40:44;;;;;;;5.40;3.60;;;9.20;55.20;;;;;;5095171;28;20228;-69